sensor_id;sensor_type;location;lat;lon;timestamp;P1;durP1;ratioP1;P2;durP2;ratioP2
23802;SDS011;12082;51.786;6.018;2023-02-16T00:01:13;62.17;;;41.13;;
23802;SDS011;12082;51.786;6.018;2023-02-16T00:03:43;64.30;;;41.97;;
23802;SDS011;12082;51.786;6.018;2023-02-16T00:06:12;63.33;;;39.47;;
23802;SDS011;12082;51.786;6.018;2023-02-16T00:08:42;62.07;;;40.47;;
23802;SDS011;12082;51.786;6.018;2023-02-16T00:11:12;64.40;;;41.93;;
23802;SDS011;12082;51.786;6.018;2023-02-16T00:14:00;67.30;;;41.37;;
23802;SDS011;12082;51.786;6.018;2023-02-16T00:16:29;61.57;;;41.47;;
23802;SDS011;12082;51.786;6.018;2023-02-16T00:18:58;57.03;;;38.70;;
23802;SDS011;12082;51.786;6.018;2023-02-16T00:21:26;66.03;;;40.37;;
23802;SDS011;12082;51.786;6.018;2023-02-16T00:23:56;60.87;;;39.17;;
23802;SDS011;12082;51.786;6.018;2023-02-16T00:26:25;60.20;;;38.80;;
23802;SDS011;12082;51.786;6.018;2023-02-16T00:28:55;63.33;;;42.07;;
23802;SDS011;12082;51.786;6.018;2023-02-16T00:31:26;59.90;;;40.27;;
23802;SDS011;12082;51.786;6.018;2023-02-16T00:33:58;63.63;;;42.50;;
23802;SDS011;12082;51.786;6.018;2023-02-16T00:36:27;71.17;;;43.40;;
23802;SDS011;12082;51.786;6.018;2023-02-16T00:38:56;66.00;;;40.97;;
23802;SDS011;12082;51.786;6.018;2023-02-16T00:41:25;63.07;;;42.90;;
23802;SDS011;12082;51.786;6.018;2023-02-16T00:44:32;62.73;;;41.73;;
23802;SDS011;12082;51.786;6.018;2023-02-16T00:49:51;63.67;;;41.77;;
23802;SDS011;12082;51.786;6.018;2023-02-16T00:52:36;69.87;;;42.83;;
23802;SDS011;12082;51.786;6.018;2023-02-16T00:55:10;66.53;;;41.67;;
23802;SDS011;12082;51.786;6.018;2023-02-16T00:57:42;62.70;;;41.90;;
23802;SDS011;12082;51.786;6.018;2023-02-16T01:00:17;69.67;;;41.67;;
23802;SDS011;12082;51.786;6.018;2023-02-16T01:02:48;62.23;;;42.33;;
23802;SDS011;12082;51.786;6.018;2023-02-16T01:05:17;60.57;;;41.60;;
23802;SDS011;12082;51.786;6.018;2023-02-16T01:07:46;69.53;;;41.97;;
23802;SDS011;12082;51.786;6.018;2023-02-16T01:10:34;77.63;;;42.43;;
23802;SDS011;12082;51.786;6.018;2023-02-16T01:13:22;62.50;;;39.70;;
23802;SDS011;12082;51.786;6.018;2023-02-16T01:15:52;71.93;;;42.70;;
23802;SDS011;12082;51.786;6.018;2023-02-16T01:18:21;67.07;;;42.07;;
23802;SDS011;12082;51.786;6.018;2023-02-16T01:20:50;62.13;;;41.47;;
23802;SDS011;12082;51.786;6.018;2023-02-16T01:23:19;68.60;;;42.10;;
23802;SDS011;12082;51.786;6.018;2023-02-16T01:25:48;67.37;;;42.10;;
23802;SDS011;12082;51.786;6.018;2023-02-16T01:28:18;67.97;;;44.53;;
23802;SDS011;12082;51.786;6.018;2023-02-16T01:30:48;70.43;;;42.93;;
23802;SDS011;12082;51.786;6.018;2023-02-16T01:33:17;73.83;;;42.13;;
23802;SDS011;12082;51.786;6.018;2023-02-16T01:35:46;63.33;;;41.23;;
23802;SDS011;12082;51.786;6.018;2023-02-16T01:38:19;63.53;;;42.10;;
23802;SDS011;12082;51.786;6.018;2023-02-16T01:43:47;69.40;;;42.10;;
23802;SDS011;12082;51.786;6.018;2023-02-16T01:46:22;68.27;;;43.07;;
23802;SDS011;12082;51.786;6.018;2023-02-16T01:48:53;60.97;;;40.73;;
23802;SDS011;12082;51.786;6.018;2023-02-16T01:51:23;67.90;;;43.97;;
23802;SDS011;12082;51.786;6.018;2023-02-16T01:54:14;68.03;;;40.87;;
23802;SDS011;12082;51.786;6.018;2023-02-16T01:56:48;70.67;;;43.53;;
23802;SDS011;12082;51.786;6.018;2023-02-16T01:59:29;67.20;;;42.93;;
23802;SDS011;12082;51.786;6.018;2023-02-16T02:01:59;68.17;;;42.97;;
23802;SDS011;12082;51.786;6.018;2023-02-16T02:04:35;63.33;;;41.00;;
23802;SDS011;12082;51.786;6.018;2023-02-16T02:07:26;62.10;;;42.73;;
23802;SDS011;12082;51.786;6.018;2023-02-16T02:09:57;67.63;;;42.00;;
23802;SDS011;12082;51.786;6.018;2023-02-16T02:12:34;63.23;;;41.93;;
23802;SDS011;12082;51.786;6.018;2023-02-16T02:15:05;66.70;;;43.50;;
23802;SDS011;12082;51.786;6.018;2023-02-16T02:17:34;63.20;;;42.43;;
23802;SDS011;12082;51.786;6.018;2023-02-16T02:20:05;63.57;;;42.20;;
23802;SDS011;12082;51.786;6.018;2023-02-16T02:44:10;66.23;;;41.53;;
23802;SDS011;12082;51.786;6.018;2023-02-16T02:46:40;65.57;;;42.20;;
23802;SDS011;12082;51.786;6.018;2023-02-16T02:49:09;62.10;;;41.67;;
23802;SDS011;12082;51.786;6.018;2023-02-16T02:51:37;64.93;;;42.03;;
23802;SDS011;12082;51.786;6.018;2023-02-16T02:54:30;63.00;;;41.43;;
23802;SDS011;12082;51.786;6.018;2023-02-16T02:57:30;70.20;;;41.17;;
23802;SDS011;12082;51.786;6.018;2023-02-16T03:00:33;70.50;;;43.27;;
23802;SDS011;12082;51.786;6.018;2023-02-16T03:03:24;75.73;;;44.70;;
23802;SDS011;12082;51.786;6.018;2023-02-16T03:08:25;66.97;;;40.87;;
23802;SDS011;12082;51.786;6.018;2023-02-16T03:11:03;72.87;;;44.57;;
23802;SDS011;12082;51.786;6.018;2023-02-16T03:14:02;65.00;;;42.53;;
23802;SDS011;12082;51.786;6.018;2023-02-16T03:16:34;66.10;;;41.33;;
23802;SDS011;12082;51.786;6.018;2023-02-16T03:19:04;65.03;;;41.00;;
23802;SDS011;12082;51.786;6.018;2023-02-16T03:21:53;64.53;;;42.13;;
23802;SDS011;12082;51.786;6.018;2023-02-16T03:24:41;66.57;;;41.10;;
23802;SDS011;12082;51.786;6.018;2023-02-16T03:27:30;75.30;;;42.77;;
23802;SDS011;12082;51.786;6.018;2023-02-16T03:30:20;66.40;;;43.07;;
23802;SDS011;12082;51.786;6.018;2023-02-16T03:32:49;67.90;;;42.63;;
23802;SDS011;12082;51.786;6.018;2023-02-16T03:35:18;72.47;;;45.20;;
23802;SDS011;12082;51.786;6.018;2023-02-16T03:37:47;72.10;;;44.40;;
23802;SDS011;12082;51.786;6.018;2023-02-16T03:40:16;66.90;;;43.27;;
23802;SDS011;12082;51.786;6.018;2023-02-16T03:42:55;71.10;;;43.03;;
23802;SDS011;12082;51.786;6.018;2023-02-16T03:45:24;65.53;;;44.37;;
23802;SDS011;12082;51.786;6.018;2023-02-16T03:47:53;68.87;;;46.13;;
23802;SDS011;12082;51.786;6.018;2023-02-16T03:50:21;68.93;;;44.30;;
23802;SDS011;12082;51.786;6.018;2023-02-16T03:52:51;62.23;;;42.93;;
23802;SDS011;12082;51.786;6.018;2023-02-16T03:55:37;64.93;;;43.17;;
23802;SDS011;12082;51.786;6.018;2023-02-16T03:58:11;80.50;;;46.23;;
23802;SDS011;12082;51.786;6.018;2023-02-16T04:00:40;75.43;;;44.57;;
23802;SDS011;12082;51.786;6.018;2023-02-16T04:03:09;67.73;;;43.27;;
23802;SDS011;12082;51.786;6.018;2023-02-16T04:05:38;65.50;;;43.33;;
23802;SDS011;12082;51.786;6.018;2023-02-16T04:08:07;75.70;;;45.40;;
23802;SDS011;12082;51.786;6.018;2023-02-16T04:10:36;73.37;;;45.43;;
23802;SDS011;12082;51.786;6.018;2023-02-16T04:13:06;71.83;;;44.27;;
23802;SDS011;12082;51.786;6.018;2023-02-16T04:15:34;81.40;;;46.80;;
23802;SDS011;12082;51.786;6.018;2023-02-16T04:18:02;81.00;;;46.77;;
23802;SDS011;12082;51.786;6.018;2023-02-16T04:20:32;72.80;;;44.93;;
23802;SDS011;12082;51.786;6.018;2023-02-16T04:23:02;86.67;;;46.40;;
23802;SDS011;12082;51.786;6.018;2023-02-16T04:25:31;73.63;;;44.57;;
23802;SDS011;12082;51.786;6.018;2023-02-16T04:28:00;68.37;;;45.57;;
23802;SDS011;12082;51.786;6.018;2023-02-16T04:30:29;72.07;;;45.53;;
23802;SDS011;12082;51.786;6.018;2023-02-16T04:32:58;74.97;;;46.37;;
23802;SDS011;12082;51.786;6.018;2023-02-16T04:35:27;68.00;;;45.17;;
23802;SDS011;12082;51.786;6.018;2023-02-16T04:37:56;76.60;;;46.43;;
23802;SDS011;12082;51.786;6.018;2023-02-16T04:40:25;67.67;;;43.97;;
23802;SDS011;12082;51.786;6.018;2023-02-16T04:42:53;69.17;;;43.73;;
23802;SDS011;12082;51.786;6.018;2023-02-16T04:45:22;70.07;;;44.23;;
23802;SDS011;12082;51.786;6.018;2023-02-16T04:47:50;75.83;;;45.53;;
23802;SDS011;12082;51.786;6.018;2023-02-16T04:50:18;67.07;;;44.47;;
23802;SDS011;12082;51.786;6.018;2023-02-16T04:52:43;71.07;;;45.10;;
23802;SDS011;12082;51.786;6.018;2023-02-16T04:55:09;68.70;;;45.20;;
23802;SDS011;12082;51.786;6.018;2023-02-16T04:57:35;73.30;;;45.67;;
23802;SDS011;12082;51.786;6.018;2023-02-16T05:00:02;84.97;;;44.23;;
23802;SDS011;12082;51.786;6.018;2023-02-16T05:02:28;73.97;;;45.93;;
23802;SDS011;12082;51.786;6.018;2023-02-16T05:04:54;77.57;;;44.40;;
23802;SDS011;12082;51.786;6.018;2023-02-16T05:07:19;73.23;;;42.97;;
23802;SDS011;12082;51.786;6.018;2023-02-16T05:09:45;70.53;;;44.63;;
23802;SDS011;12082;51.786;6.018;2023-02-16T05:12:10;66.73;;;42.87;;
23802;SDS011;12082;51.786;6.018;2023-02-16T05:14:54;68.43;;;42.47;;
23802;SDS011;12082;51.786;6.018;2023-02-16T05:17:21;73.27;;;44.13;;
23802;SDS011;12082;51.786;6.018;2023-02-16T05:19:49;69.60;;;43.90;;
23802;SDS011;12082;51.786;6.018;2023-02-16T05:22:16;71.00;;;44.13;;
23802;SDS011;12082;51.786;6.018;2023-02-16T05:24:42;69.70;;;44.40;;
23802;SDS011;12082;51.786;6.018;2023-02-16T05:27:13;74.83;;;45.53;;
23802;SDS011;12082;51.786;6.018;2023-02-16T05:29:44;76.90;;;45.07;;
23802;SDS011;12082;51.786;6.018;2023-02-16T05:32:09;68.50;;;45.10;;
23802;SDS011;12082;51.786;6.018;2023-02-16T05:34:35;72.33;;;44.07;;
23802;SDS011;12082;51.786;6.018;2023-02-16T05:37:01;63.77;;;42.57;;
23802;SDS011;12082;51.786;6.018;2023-02-16T05:39:27;62.23;;;41.33;;
23802;SDS011;12082;51.786;6.018;2023-02-16T05:41:52;67.40;;;41.87;;
23802;SDS011;12082;51.786;6.018;2023-02-16T05:44:18;65.23;;;41.60;;
23802;SDS011;12082;51.786;6.018;2023-02-16T05:46:43;65.23;;;41.43;;
23802;SDS011;12082;51.786;6.018;2023-02-16T05:49:10;72.77;;;43.67;;
23802;SDS011;12082;51.786;6.018;2023-02-16T05:51:36;68.83;;;42.17;;
23802;SDS011;12082;51.786;6.018;2023-02-16T05:54:02;60.23;;;41.57;;
23802;SDS011;12082;51.786;6.018;2023-02-16T05:56:29;72.20;;;43.93;;
23802;SDS011;12082;51.786;6.018;2023-02-16T05:58:55;69.90;;;43.77;;
23802;SDS011;12082;51.786;6.018;2023-02-16T06:01:21;67.07;;;43.57;;
23802;SDS011;12082;51.786;6.018;2023-02-16T06:03:47;67.17;;;43.80;;
23802;SDS011;12082;51.786;6.018;2023-02-16T06:06:13;67.37;;;43.13;;
23802;SDS011;12082;51.786;6.018;2023-02-16T06:08:39;64.20;;;42.37;;
23802;SDS011;12082;51.786;6.018;2023-02-16T06:11:05;58.63;;;41.17;;
23802;SDS011;12082;51.786;6.018;2023-02-16T06:13:50;62.10;;;42.77;;
23802;SDS011;12082;51.786;6.018;2023-02-16T06:16:16;71.30;;;44.80;;
23802;SDS011;12082;51.786;6.018;2023-02-16T06:18:41;69.20;;;41.50;;
23802;SDS011;12082;51.786;6.018;2023-02-16T06:21:07;62.40;;;42.73;;
23802;SDS011;12082;51.786;6.018;2023-02-16T06:23:33;63.73;;;41.40;;
23802;SDS011;12082;51.786;6.018;2023-02-16T06:25:58;67.07;;;41.90;;
23802;SDS011;12082;51.786;6.018;2023-02-16T06:28:24;67.50;;;41.97;;
23802;SDS011;12082;51.786;6.018;2023-02-16T06:30:49;75.23;;;43.03;;
23802;SDS011;12082;51.786;6.018;2023-02-16T06:33:15;69.27;;;43.33;;
23802;SDS011;12082;51.786;6.018;2023-02-16T06:35:40;66.53;;;42.33;;
23802;SDS011;12082;51.786;6.018;2023-02-16T06:38:06;64.80;;;40.87;;
23802;SDS011;12082;51.786;6.018;2023-02-16T06:40:31;61.50;;;41.63;;
23802;SDS011;12082;51.786;6.018;2023-02-16T06:42:57;68.60;;;43.30;;
23802;SDS011;12082;51.786;6.018;2023-02-16T06:45:22;72.57;;;44.07;;
23802;SDS011;12082;51.786;6.018;2023-02-16T06:47:48;64.20;;;41.27;;
23802;SDS011;12082;51.786;6.018;2023-02-16T06:50:13;62.20;;;41.80;;
23802;SDS011;12082;51.786;6.018;2023-02-16T06:52:39;69.30;;;42.50;;
23802;SDS011;12082;51.786;6.018;2023-02-16T06:55:04;70.23;;;42.53;;
23802;SDS011;12082;51.786;6.018;2023-02-16T06:57:30;72.23;;;41.87;;
23802;SDS011;12082;51.786;6.018;2023-02-16T06:59:56;67.40;;;43.30;;
23802;SDS011;12082;51.786;6.018;2023-02-16T07:02:22;70.70;;;42.53;;
23802;SDS011;12082;51.786;6.018;2023-02-16T07:04:47;66.67;;;40.50;;
23802;SDS011;12082;51.786;6.018;2023-02-16T07:07:13;65.43;;;43.10;;
23802;SDS011;12082;51.786;6.018;2023-02-16T07:09:38;62.80;;;40.10;;
23802;SDS011;12082;51.786;6.018;2023-02-16T07:12:04;60.37;;;40.60;;
23802;SDS011;12082;51.786;6.018;2023-02-16T07:14:31;62.50;;;40.97;;
23802;SDS011;12082;51.786;6.018;2023-02-16T07:16:56;65.07;;;41.07;;
23802;SDS011;12082;51.786;6.018;2023-02-16T07:19:28;65.57;;;42.40;;
23802;SDS011;12082;51.786;6.018;2023-02-16T07:21:57;60.27;;;39.83;;
23802;SDS011;12082;51.786;6.018;2023-02-16T07:24:23;67.73;;;40.00;;
23802;SDS011;12082;51.786;6.018;2023-02-16T07:26:49;66.93;;;41.70;;
23802;SDS011;12082;51.786;6.018;2023-02-16T07:29:14;62.00;;;39.83;;
23802;SDS011;12082;51.786;6.018;2023-02-16T07:31:40;61.93;;;41.47;;
23802;SDS011;12082;51.786;6.018;2023-02-16T07:34:05;67.70;;;42.60;;
23802;SDS011;12082;51.786;6.018;2023-02-16T07:36:31;60.60;;;40.43;;
23802;SDS011;12082;51.786;6.018;2023-02-16T07:38:56;59.90;;;41.83;;
23802;SDS011;12082;51.786;6.018;2023-02-16T07:41:22;64.30;;;40.50;;
23802;SDS011;12082;51.786;6.018;2023-02-16T07:43:50;62.73;;;40.67;;
23802;SDS011;12082;51.786;6.018;2023-02-16T07:46:15;68.73;;;44.03;;
23802;SDS011;12082;51.786;6.018;2023-02-16T07:48:41;63.70;;;41.30;;
23802;SDS011;12082;51.786;6.018;2023-02-16T07:51:07;64.23;;;40.37;;
23802;SDS011;12082;51.786;6.018;2023-02-16T07:53:32;63.93;;;42.10;;
23802;SDS011;12082;51.786;6.018;2023-02-16T07:55:58;64.87;;;41.77;;
23802;SDS011;12082;51.786;6.018;2023-02-16T07:58:23;65.70;;;41.77;;
23802;SDS011;12082;51.786;6.018;2023-02-16T08:00:56;69.43;;;41.23;;
23802;SDS011;12082;51.786;6.018;2023-02-16T08:03:30;62.80;;;42.70;;
23802;SDS011;12082;51.786;6.018;2023-02-16T08:05:58;57.73;;;40.13;;
23802;SDS011;12082;51.786;6.018;2023-02-16T08:08:25;66.57;;;43.20;;
23802;SDS011;12082;51.786;6.018;2023-02-16T08:10:50;62.77;;;40.50;;
23802;SDS011;12082;51.786;6.018;2023-02-16T08:13:16;67.23;;;41.13;;
23802;SDS011;12082;51.786;6.018;2023-02-16T08:15:42;66.20;;;41.10;;
23802;SDS011;12082;51.786;6.018;2023-02-16T08:18:08;56.17;;;38.60;;
23802;SDS011;12082;51.786;6.018;2023-02-16T08:20:34;57.80;;;38.60;;
23802;SDS011;12082;51.786;6.018;2023-02-16T08:23:00;60.57;;;39.80;;
23802;SDS011;12082;51.786;6.018;2023-02-16T08:25:25;55.63;;;39.67;;
23802;SDS011;12082;51.786;6.018;2023-02-16T08:27:51;57.03;;;38.93;;
23802;SDS011;12082;51.786;6.018;2023-02-16T08:30:16;62.10;;;38.90;;
23802;SDS011;12082;51.786;6.018;2023-02-16T08:32:42;60.83;;;38.77;;
23802;SDS011;12082;51.786;6.018;2023-02-16T08:35:10;62.50;;;38.00;;
23802;SDS011;12082;51.786;6.018;2023-02-16T08:37:38;61.23;;;38.57;;
23802;SDS011;12082;51.786;6.018;2023-02-16T08:40:07;59.53;;;38.47;;
23802;SDS011;12082;51.786;6.018;2023-02-16T08:42:33;54.73;;;36.93;;
23802;SDS011;12082;51.786;6.018;2023-02-16T08:44:58;60.03;;;38.90;;
23802;SDS011;12082;51.786;6.018;2023-02-16T08:47:24;59.40;;;39.17;;
23802;SDS011;12082;51.786;6.018;2023-02-16T08:49:49;61.07;;;39.37;;
23802;SDS011;12082;51.786;6.018;2023-02-16T08:52:15;59.10;;;39.40;;
23802;SDS011;12082;51.786;6.018;2023-02-16T08:54:40;59.27;;;39.97;;
23802;SDS011;12082;51.786;6.018;2023-02-16T08:57:06;61.77;;;39.40;;
23802;SDS011;12082;51.786;6.018;2023-02-16T08:59:32;59.00;;;38.73;;
23802;SDS011;12082;51.786;6.018;2023-02-16T09:01:59;60.80;;;39.53;;
23802;SDS011;12082;51.786;6.018;2023-02-16T09:04:25;59.23;;;40.00;;
23802;SDS011;12082;51.786;6.018;2023-02-16T09:06:53;64.17;;;39.77;;
23802;SDS011;12082;51.786;6.018;2023-02-16T09:09:20;58.53;;;39.50;;
23802;SDS011;12082;51.786;6.018;2023-02-16T09:11:47;53.53;;;40.43;;
23802;SDS011;12082;51.786;6.018;2023-02-16T09:14:13;63.50;;;41.00;;
23802;SDS011;12082;51.786;6.018;2023-02-16T09:16:40;55.13;;;37.87;;
23802;SDS011;12082;51.786;6.018;2023-02-16T09:19:10;52.97;;;38.50;;
23802;SDS011;12082;51.786;6.018;2023-02-16T09:21:39;55.70;;;38.40;;
23802;SDS011;12082;51.786;6.018;2023-02-16T09:24:06;59.90;;;40.10;;
23802;SDS011;12082;51.786;6.018;2023-02-16T09:26:35;53.13;;;37.27;;
23802;SDS011;12082;51.786;6.018;2023-02-16T09:29:03;57.00;;;40.30;;
23802;SDS011;12082;51.786;6.018;2023-02-16T09:31:33;56.93;;;39.90;;
23802;SDS011;12082;51.786;6.018;2023-02-16T09:34:12;58.50;;;39.63;;
23802;SDS011;12082;51.786;6.018;2023-02-16T09:36:48;59.70;;;39.17;;
23802;SDS011;12082;51.786;6.018;2023-02-16T09:39:14;53.10;;;37.90;;
23802;SDS011;12082;51.786;6.018;2023-02-16T09:47:03;55.57;;;38.53;;
23802;SDS011;12082;51.786;6.018;2023-02-16T09:49:40;55.17;;;38.30;;
23802;SDS011;12082;51.786;6.018;2023-02-16T09:54:53;53.50;;;38.00;;
23802;SDS011;12082;51.786;6.018;2023-02-16T09:59:55;58.23;;;39.37;;
23802;SDS011;12082;51.786;6.018;2023-02-16T10:02:39;63.80;;;40.23;;
23802;SDS011;12082;51.786;6.018;2023-02-16T10:05:18;53.93;;;39.33;;
23802;SDS011;12082;51.786;6.018;2023-02-16T10:08:06;61.17;;;39.77;;
23802;SDS011;12082;51.786;6.018;2023-02-16T10:13:30;56.27;;;39.13;;
23802;SDS011;12082;51.786;6.018;2023-02-16T10:16:03;58.07;;;39.67;;
23802;SDS011;12082;51.786;6.018;2023-02-16T10:18:34;54.43;;;39.73;;
23802;SDS011;12082;51.786;6.018;2023-02-16T10:21:08;56.60;;;39.03;;
23802;SDS011;12082;51.786;6.018;2023-02-16T10:26:41;58.03;;;39.17;;
23802;SDS011;12082;51.786;6.018;2023-02-16T10:29:12;53.87;;;38.57;;
23802;SDS011;12082;51.786;6.018;2023-02-16T10:42:41;59.93;;;40.60;;
23802;SDS011;12082;51.786;6.018;2023-02-16T10:44:50;57.90;;;40.23;;
23802;SDS011;12082;51.786;6.018;2023-02-16T10:47:37;59.37;;;41.20;;
23802;SDS011;12082;51.786;6.018;2023-02-16T10:50:13;63.37;;;43.23;;
23802;SDS011;12082;51.786;6.018;2023-02-16T10:52:47;63.07;;;44.27;;
23802;SDS011;12082;51.786;6.018;2023-02-16T10:55:15;67.93;;;43.30;;
23802;SDS011;12082;51.786;6.018;2023-02-16T10:57:41;60.73;;;43.83;;
23802;SDS011;12082;51.786;6.018;2023-02-16T11:00:11;66.33;;;45.83;;
23802;SDS011;12082;51.786;6.018;2023-02-16T11:02:45;64.57;;;43.67;;
23802;SDS011;12082;51.786;6.018;2023-02-16T11:07:54;68.03;;;44.73;;
23802;SDS011;12082;51.786;6.018;2023-02-16T11:10:33;73.10;;;45.53;;
23802;SDS011;12082;51.786;6.018;2023-02-16T11:13:02;97.60;;;47.57;;
23802;SDS011;12082;51.786;6.018;2023-02-16T11:15:28;69.57;;;44.63;;
23802;SDS011;12082;51.786;6.018;2023-02-16T11:17:59;71.90;;;44.33;;
23802;SDS011;12082;51.786;6.018;2023-02-16T11:23:31;69.30;;;45.70;;
23802;SDS011;12082;51.786;6.018;2023-02-16T11:26:02;64.67;;;44.73;;
23802;SDS011;12082;51.786;6.018;2023-02-16T11:39:24;76.57;;;46.93;;
23802;SDS011;12082;51.786;6.018;2023-02-16T11:42:30;78.30;;;48.57;;
23802;SDS011;12082;51.786;6.018;2023-02-16T11:44:55;70.60;;;46.60;;
23802;SDS011;12082;51.786;6.018;2023-02-16T11:47:33;70.07;;;47.43;;
23802;SDS011;12082;51.786;6.018;2023-02-16T11:50:21;75.23;;;48.63;;
23802;SDS011;12082;51.786;6.018;2023-02-16T11:52:57;72.00;;;47.33;;
23802;SDS011;12082;51.786;6.018;2023-02-16T11:55:37;74.63;;;49.57;;
23802;SDS011;12082;51.786;6.018;2023-02-16T12:06:26;82.93;;;53.23;;
23802;SDS011;12082;51.786;6.018;2023-02-16T12:11:53;80.13;;;52.47;;
23802;SDS011;12082;51.786;6.018;2023-02-16T12:20:46;83.83;;;56.20;;
23802;SDS011;12082;51.786;6.018;2023-02-16T12:23:39;81.87;;;53.37;;
23802;SDS011;12082;51.786;6.018;2023-02-16T12:37:19;86.20;;;55.00;;
23802;SDS011;12082;51.786;6.018;2023-02-16T12:42:48;86.77;;;56.20;;
23802;SDS011;12082;51.786;6.018;2023-02-16T12:45:29;90.67;;;54.33;;
23802;SDS011;12082;51.786;6.018;2023-02-16T12:50:58;97.63;;;58.47;;
23802;SDS011;12082;51.786;6.018;2023-02-16T12:53:34;101.77;;;65.30;;
23802;SDS011;12082;51.786;6.018;2023-02-16T12:56:10;91.60;;;60.57;;
23802;SDS011;12082;51.786;6.018;2023-02-16T12:58:42;100.37;;;59.47;;
23802;SDS011;12082;51.786;6.018;2023-02-16T13:01:21;91.93;;;56.87;;
23802;SDS011;12082;51.786;6.018;2023-02-16T13:03:56;93.20;;;58.17;;
23802;SDS011;12082;51.786;6.018;2023-02-16T13:06:55;97.07;;;59.77;;
23802;SDS011;12082;51.786;6.018;2023-02-16T13:12:23;92.60;;;55.10;;
23802;SDS011;12082;51.786;6.018;2023-02-16T13:15:02;93.97;;;52.97;;
23802;SDS011;12082;51.786;6.018;2023-02-16T13:17:40;90.50;;;55.00;;
23802;SDS011;12082;51.786;6.018;2023-02-16T13:20:11;94.90;;;55.13;;
23802;SDS011;12082;51.786;6.018;2023-02-16T13:31:42;88.30;;;54.57;;
23802;SDS011;12082;51.786;6.018;2023-02-16T13:34:26;84.07;;;51.03;;
23802;SDS011;12082;51.786;6.018;2023-02-16T13:37:16;81.03;;;52.20;;
23802;SDS011;12082;51.786;6.018;2023-02-16T13:44:48;83.97;;;51.37;;
23802;SDS011;12082;51.786;6.018;2023-02-16T13:47:17;89.17;;;54.50;;
23802;SDS011;12082;51.786;6.018;2023-02-16T13:49:48;103.93;;;58.77;;
23802;SDS011;12082;51.786;6.018;2023-02-16T13:52:31;74.87;;;49.60;;
23802;SDS011;12082;51.786;6.018;2023-02-16T13:54:58;73.63;;;49.27;;
23802;SDS011;12082;51.786;6.018;2023-02-16T14:00:47;73.83;;;46.53;;
23802;SDS011;12082;51.786;6.018;2023-02-16T14:05:45;60.37;;;43.83;;
23802;SDS011;12082;51.786;6.018;2023-02-16T14:23:43;69.83;;;41.20;;
23802;SDS011;12082;51.786;6.018;2023-02-16T14:26:10;71.00;;;42.77;;
23802;SDS011;12082;51.786;6.018;2023-02-16T14:31:25;59.17;;;40.93;;
23802;SDS011;12082;51.786;6.018;2023-02-16T14:33:55;63.57;;;42.27;;
23802;SDS011;12082;51.786;6.018;2023-02-16T14:36:26;88.67;;;52.17;;
23802;SDS011;12082;51.786;6.018;2023-02-16T14:38:54;69.00;;;46.23;;
23802;SDS011;12082;51.786;6.018;2023-02-16T14:41:30;56.37;;;39.60;;
23802;SDS011;12082;51.786;6.018;2023-02-16T14:54:36;54.27;;;35.27;;
23802;SDS011;12082;51.786;6.018;2023-02-16T14:57:09;46.60;;;35.70;;
23802;SDS011;12082;51.786;6.018;2023-02-16T14:59:43;49.13;;;34.13;;
23802;SDS011;12082;51.786;6.018;2023-02-16T15:02:27;45.03;;;32.73;;
23802;SDS011;12082;51.786;6.018;2023-02-16T15:04:55;43.63;;;34.43;;
23802;SDS011;12082;51.786;6.018;2023-02-16T15:07:22;45.57;;;33.67;;
23802;SDS011;12082;51.786;6.018;2023-02-16T15:09:52;46.30;;;33.47;;
23802;SDS011;12082;51.786;6.018;2023-02-16T15:12:22;58.97;;;40.40;;
23802;SDS011;12082;51.786;6.018;2023-02-16T15:14:57;45.90;;;37.20;;
23802;SDS011;12082;51.786;6.018;2023-02-16T15:19:52;42.80;;;33.70;;
23802;SDS011;12082;51.786;6.018;2023-02-16T15:22:24;44.50;;;33.73;;
23802;SDS011;12082;51.786;6.018;2023-02-16T15:24:53;42.57;;;34.80;;
23802;SDS011;12082;51.786;6.018;2023-02-16T15:27:21;46.47;;;33.90;;
23802;SDS011;12082;51.786;6.018;2023-02-16T15:30:21;37.73;;;33.53;;
23802;SDS011;12082;51.786;6.018;2023-02-16T15:32:51;44.60;;;34.33;;
23802;SDS011;12082;51.786;6.018;2023-02-16T15:35:26;44.53;;;36.07;;
23802;SDS011;12082;51.786;6.018;2023-02-16T15:38:07;46.00;;;36.50;;
23802;SDS011;12082;51.786;6.018;2023-02-16T15:40:34;46.60;;;34.50;;
23802;SDS011;12082;51.786;6.018;2023-02-16T15:45:56;43.33;;;33.90;;
23802;SDS011;12082;51.786;6.018;2023-02-16T15:48:32;50.07;;;34.07;;
23802;SDS011;12082;51.786;6.018;2023-02-16T15:53:34;37.57;;;31.57;;
23802;SDS011;12082;51.786;6.018;2023-02-16T15:56:03;43.93;;;32.97;;
23802;SDS011;12082;51.786;6.018;2023-02-16T15:58:30;40.97;;;32.93;;
23802;SDS011;12082;51.786;6.018;2023-02-16T16:00:57;46.33;;;34.00;;
23802;SDS011;12082;51.786;6.018;2023-02-16T16:03:24;41.53;;;32.70;;
23802;SDS011;12082;51.786;6.018;2023-02-16T16:05:56;37.00;;;31.87;;
23802;SDS011;12082;51.786;6.018;2023-02-16T16:08:24;42.10;;;33.27;;
23802;SDS011;12082;51.786;6.018;2023-02-16T16:10:51;37.37;;;32.63;;
23802;SDS011;12082;51.786;6.018;2023-02-16T16:13:22;43.47;;;32.47;;
23802;SDS011;12082;51.786;6.018;2023-02-16T16:15:49;44.30;;;33.77;;
23802;SDS011;12082;51.786;6.018;2023-02-16T16:18:32;46.67;;;35.57;;
23802;SDS011;12082;51.786;6.018;2023-02-16T16:21:02;49.50;;;34.67;;
23802;SDS011;12082;51.786;6.018;2023-02-16T16:23:29;61.90;;;41.93;;
23802;SDS011;12082;51.786;6.018;2023-02-16T16:25:56;55.27;;;41.50;;
23802;SDS011;12082;51.786;6.018;2023-02-16T16:33:51;46.80;;;35.73;;
23802;SDS011;12082;51.786;6.018;2023-02-16T16:36:18;46.97;;;35.30;;
23802;SDS011;12082;51.786;6.018;2023-02-16T16:38:44;46.37;;;36.03;;
23802;SDS011;12082;51.786;6.018;2023-02-16T16:41:24;58.10;;;39.70;;
23802;SDS011;12082;51.786;6.018;2023-02-16T16:43:54;43.53;;;38.37;;
23802;SDS011;12082;51.786;6.018;2023-02-16T16:46:23;48.13;;;38.80;;
23802;SDS011;12082;51.786;6.018;2023-02-16T16:48:52;45.40;;;36.80;;
23802;SDS011;12082;51.786;6.018;2023-02-16T16:54:03;45.17;;;37.93;;
23802;SDS011;12082;51.786;6.018;2023-02-16T16:56:30;47.60;;;39.60;;
23802;SDS011;12082;51.786;6.018;2023-02-16T16:59:00;48.23;;;36.83;;
23802;SDS011;12082;51.786;6.018;2023-02-16T17:01:27;54.03;;;39.50;;
23802;SDS011;12082;51.786;6.018;2023-02-16T17:03:54;43.63;;;38.80;;
23802;SDS011;12082;51.786;6.018;2023-02-16T17:06:20;48.03;;;38.67;;
23802;SDS011;12082;51.786;6.018;2023-02-16T17:08:47;51.50;;;38.87;;
23802;SDS011;12082;51.786;6.018;2023-02-16T17:11:35;44.27;;;36.63;;
23802;SDS011;12082;51.786;6.018;2023-02-16T17:14:09;44.93;;;34.80;;
23802;SDS011;12082;51.786;6.018;2023-02-16T17:16:41;46.67;;;37.00;;
23802;SDS011;12082;51.786;6.018;2023-02-16T17:19:12;45.20;;;35.53;;
23802;SDS011;12082;51.786;6.018;2023-02-16T17:21:39;47.87;;;38.53;;
23802;SDS011;12082;51.786;6.018;2023-02-16T17:24:06;52.67;;;37.47;;
23802;SDS011;12082;51.786;6.018;2023-02-16T17:26:34;52.77;;;36.97;;
23802;SDS011;12082;51.786;6.018;2023-02-16T17:29:01;52.77;;;35.90;;
23802;SDS011;12082;51.786;6.018;2023-02-16T17:31:27;50.70;;;38.23;;
23802;SDS011;12082;51.786;6.018;2023-02-16T17:33:53;52.20;;;37.83;;
23802;SDS011;12082;51.786;6.018;2023-02-16T17:36:18;54.17;;;37.83;;
23802;SDS011;12082;51.786;6.018;2023-02-16T17:38:46;55.83;;;39.47;;